Aérodrome :
LOGIN :

S'inscrire | Disclaimer

   EN    FR    IT 

 










Légende :    VFR   VFR Marginal   IFR   IFR Intensif   IFR Très Intensif
Visi : 
Plafond : 
>= 8 km
>= 3000ft
5 à 8 km
1000 à 3000 ft
1500m à 5 km
500 à 1000 ft
800 à 1500m
200 à 500 ft
< 800m
< 200 ft
Symboles :   Orages  Brouillard  Fortes neiges  Fortes précipitations  Vent > 20 kt
SIGMETs :   Divers  Orages  Givrage  Turbulence  Onde Orograph.  Cendres Volcan.







- Altitude de l'aérodrome : 1906 ft
- Code IATA : INN


LOWI - Innsbruck

DERNIER METAR :
  • 130520Z 25003KT 9999 FEW030 M09/M11 Q1016 NOSIG

METARs EXPIRÉS :
  • 130450Z 25003KT CAVOK M08/M10 Q1016 NOSIG
  • 130420Z AUTO 26003KT 9999 NSC M08/M10 Q1017
  • 130350Z AUTO 26002KT 9999 NSC M08/M10 Q1017
  • 130320Z AUTO VRB01KT 9999 NSC M08/M10 Q1017
  • 130250Z AUTO VRB01KT 9999 NSC M08/M10 Q1017

TAF TAF LOWI
Valide du 13 à 06h jusqu'au 14 à 06h UTC


130515Z 1306/1406 27005KT 9999 FEW030 TXM01/1313Z TNM08/1306Z
TEMPO 1309/1315 09007KT
Pas de NOTAMs connus pour ce terrain.



MET'MAP, la Météo Aéronautique d'un coup d'oeil ! - Copyright ORBIFLY Décembre 2007 - Disclaimer

ORBIFLY MET'MAP TEAM :

Programmation & Développement : Alexandra Zaïnal
Conception & Développement : Baudouin d'Aumeries
Co-Programmation & Développement : Marc-Olivier Méhu
Soutien technique & logistique : Manuel Goepfert

Contact : metmap@orbifly.com




SOURCES & CREDITS :

   NOAA